createdAt,value
2022-11-09T00:00:38.997Z,3.60
2022-11-09T00:01:39.049Z,3.52
2022-11-09T00:02:43.704Z,3.55
2022-11-09T00:03:40.106Z,3.56
2022-11-09T00:04:39.138Z,3.55
2022-11-09T00:05:39.179Z,3.49
2022-11-09T00:06:39.266Z,3.45
2022-11-09T00:07:39.248Z,3.51
2022-11-09T00:08:39.278Z,3.46
2022-11-09T00:09:39.337Z,3.45
2022-11-09T00:10:39.350Z,3.45
2022-11-09T00:11:39.402Z,3.44
2022-11-09T00:12:39.420Z,3.41
2022-11-09T00:13:39.450Z,3.42
2022-11-09T00:14:39.501Z,3.41
2022-11-09T00:15:39.520Z,3.41
2022-11-09T00:16:39.580Z,3.42
2022-11-09T00:17:39.592Z,3.37
2022-11-09T00:18:39.638Z,3.36
2022-11-09T00:19:39.671Z,3.46
2022-11-09T00:20:43.236Z,3.44
2022-11-09T00:21:40.762Z,3.45
2022-11-09T00:22:39.781Z,3.44
2022-11-09T00:23:39.824Z,3.46
2022-11-09T00:24:39.853Z,3.52
2022-11-09T00:25:39.913Z,3.51
2022-11-09T00:26:39.933Z,3.55
2022-11-09T00:27:40.033Z,3.59
2022-11-09T00:28:40.022Z,3.63
2022-11-09T00:29:40.053Z,3.64
2022-11-09T00:30:40.093Z,3.73
2022-11-09T00:31:40.144Z,3.73
2022-11-09T00:32:40.187Z,3.69
2022-11-09T00:33:40.217Z,3.70
2022-11-09T00:34:40.253Z,3.81
2022-11-09T00:35:40.294Z,3.72
2022-11-09T00:36:40.333Z,3.69
2022-11-09T00:37:40.455Z,3.67
2022-11-09T00:38:40.410Z,3.72
2022-11-09T00:39:40.445Z,3.64
2022-11-09T00:40:40.468Z,3.70
2022-11-09T00:41:40.503Z,3.74
2022-11-09T00:42:40.543Z,3.74
2022-11-09T00:43:40.566Z,3.78
2022-11-09T00:44:40.587Z,3.80
2022-11-09T00:45:40.633Z,3.82
2022-11-09T00:46:40.647Z,3.82
2022-11-09T00:47:40.701Z,3.78
2022-11-09T00:48:40.717Z,3.76
2022-11-09T00:49:40.748Z,3.74
2022-11-09T00:50:40.781Z,3.78
2022-11-09T00:51:40.830Z,3.78
2022-11-09T00:52:40.859Z,3.78
2022-11-09T00:53:40.908Z,3.76
2022-11-09T00:54:40.932Z,3.74
2022-11-09T00:55:40.950Z,3.72
2022-11-09T00:56:41.010Z,3.73
2022-11-09T00:57:41.039Z,3.69
2022-11-09T00:58:41.075Z,3.66
2022-11-09T00:59:41.101Z,3.73
2022-11-09T01:00:41.170Z,3.67
2022-11-09T01:01:41.228Z,3.63
2022-11-09T01:02:41.192Z,3.59
2022-11-09T01:03:41.232Z,3.60
2022-11-09T01:04:41.255Z,3.60
2022-11-09T01:05:41.294Z,3.60
2022-11-09T01:06:41.369Z,3.59
2022-11-09T01:07:41.380Z,3.69
2022-11-09T01:08:41.403Z,3.63
2022-11-09T01:09:41.443Z,3.62
2022-11-09T01:10:41.463Z,3.60
2022-11-09T01:11:41.501Z,3.54
2022-11-09T01:12:41.535Z,3.54
2022-11-09T01:13:41.578Z,3.51
2022-11-09T01:14:41.590Z,3.49
2022-11-09T01:15:41.626Z,3.46
2022-11-09T01:16:41.643Z,3.46
2022-11-09T01:17:41.701Z,3.49
2022-11-09T01:18:41.715Z,3.46
2022-11-09T01:19:41.753Z,3.49
2022-11-09T01:20:41.775Z,3.44
2022-11-09T01:21:41.832Z,3.41
2022-11-09T01:22:41.866Z,3.37
2022-11-09T01:23:41.885Z,3.37
2022-11-09T01:24:41.928Z,3.36
2022-11-09T01:25:41.968Z,3.37
2022-11-09T01:26:42.008Z,3.30
2022-11-09T01:27:42.063Z,3.35
2022-11-09T01:28:42.069Z,3.35
2022-11-09T01:29:42.097Z,3.27
2022-11-09T01:30:42.131Z,3.26
2022-11-09T01:31:42.167Z,3.29
2022-11-09T01:32:42.216Z,3.20
2022-11-09T01:33:42.253Z,3.22
2022-11-09T01:34:42.289Z,3.18
2022-11-09T01:35:42.328Z,3.20
2022-11-09T01:36:42.362Z,3.20
2022-11-09T01:37:42.410Z,3.18
2022-11-09T01:38:42.429Z,3.15
2022-11-09T01:39:42.468Z,3.17
2022-11-09T01:40:42.489Z,3.17
2022-11-09T01:41:42.519Z,3.17
2022-11-09T01:42:42.566Z,3.17
2022-11-09T01:43:42.589Z,3.12
2022-11-09T01:44:42.622Z,3.12
2022-11-09T01:45:42.661Z,3.17
2022-11-09T01:46:42.689Z,3.14
2022-11-09T01:47:42.739Z,3.09
2022-11-09T01:48:42.765Z,3.14
2022-11-09T01:49:42.809Z,3.11
2022-11-09T01:50:42.849Z,3.11
2022-11-09T01:51:42.910Z,3.05
2022-11-09T01:52:42.929Z,3.05
2022-11-09T01:53:42.952Z,3.00
2022-11-09T01:54:42.984Z,3.00
2022-11-09T01:55:43.031Z,2.96
2022-11-09T01:56:43.100Z,2.91
2022-11-09T01:57:43.124Z,2.90
2022-11-09T01:58:43.153Z,2.89
2022-11-09T01:59:43.199Z,2.87
2022-11-09T02:00:43.233Z,2.87
2022-11-09T02:01:43.337Z,2.82
2022-11-09T02:02:43.333Z,2.72
2022-11-09T02:03:43.373Z,2.78
2022-11-09T02:04:43.411Z,2.84
2022-11-09T02:05:43.462Z,2.73
2022-11-09T02:06:43.520Z,2.66
2022-11-09T02:07:43.575Z,2.69
2022-11-09T02:08:43.594Z,2.65
2022-11-09T02:09:43.644Z,2.61
2022-11-09T02:10:43.676Z,2.61
2022-11-09T02:11:43.735Z,2.61
2022-11-09T02:12:43.775Z,2.54
2022-11-09T02:13:43.820Z,2.61
2022-11-09T02:14:43.835Z,2.58
2022-11-09T02:15:45.871Z,2.54
2022-11-09T02:16:43.927Z,2.53
2022-11-09T02:17:43.982Z,2.48
2022-11-09T02:18:44.006Z,2.50
2022-11-09T02:19:44.057Z,2.47
2022-11-09T02:20:44.093Z,2.47
2022-11-09T02:21:44.134Z,2.47
2022-11-09T02:22:44.189Z,2.48
2022-11-09T02:23:44.208Z,2.45
2022-11-09T02:24:44.246Z,2.43
2022-11-09T02:25:44.306Z,2.32
2022-11-09T02:26:44.327Z,2.40
2022-11-09T02:27:44.399Z,2.35
2022-11-09T02:28:44.426Z,2.33
2022-11-09T02:29:44.469Z,2.30
2022-11-09T02:30:44.508Z,2.35
2022-11-09T02:31:44.561Z,2.32
2022-11-09T02:32:44.618Z,2.24
2022-11-09T02:33:44.658Z,2.22
2022-11-09T02:34:44.699Z,2.24
2022-11-09T02:35:44.762Z,2.28
2022-11-09T02:36:44.803Z,2.25
2022-11-09T02:37:44.876Z,2.25
2022-11-09T02:38:44.917Z,2.29
2022-11-09T02:39:44.953Z,2.29
2022-11-09T02:40:44.986Z,2.28
2022-11-09T02:41:45.038Z,2.24
2022-11-09T02:42:45.086Z,2.21
2022-11-09T02:43:45.119Z,2.24
2022-11-09T02:44:45.150Z,2.22
2022-11-09T02:45:45.199Z,2.22
2022-11-09T02:46:45.239Z,2.30
2022-11-09T02:47:45.308Z,2.22
2022-11-09T02:48:45.334Z,2.17
2022-11-09T02:49:45.393Z,2.19
2022-11-09T02:50:45.410Z,2.18
2022-11-09T02:51:45.456Z,2.18
2022-11-09T02:52:45.520Z,2.18
2022-11-09T02:53:45.563Z,2.15
2022-11-09T02:54:45.582Z,2.19
2022-11-09T02:55:45.637Z,2.17
2022-11-09T02:56:45.672Z,2.18
2022-11-09T02:57:45.743Z,2.15
2022-11-09T02:58:45.770Z,2.15
2022-11-09T02:59:45.812Z,2.12
2022-11-09T03:00:45.893Z,2.07
2022-11-09T03:01:45.936Z,2.03
2022-11-09T03:02:45.965Z,2.01
2022-11-09T03:03:45.990Z,1.93
2022-11-09T03:04:46.024Z,1.99
2022-11-09T03:05:46.075Z,2.01
2022-11-09T03:06:46.173Z,2.03
2022-11-09T03:07:46.184Z,2.03
2022-11-09T03:08:46.213Z,2.11
2022-11-09T03:09:46.272Z,2.07
2022-11-09T03:10:46.314Z,2.10
2022-11-09T03:11:46.389Z,2.11
2022-11-09T03:12:46.425Z,2.14
2022-11-09T03:13:46.456Z,2.10
2022-11-09T03:14:46.504Z,2.14
2022-11-09T03:15:46.560Z,2.21
2022-11-09T03:16:50.454Z,2.15
2022-11-09T03:17:46.672Z,2.19
2022-11-09T03:18:46.695Z,2.25
2022-11-09T03:19:46.747Z,2.32
2022-11-09T03:20:46.794Z,2.35
2022-11-09T03:21:46.836Z,2.37
2022-11-09T03:22:46.897Z,2.40
2022-11-09T03:23:46.929Z,2.42
2022-11-09T03:24:46.968Z,2.43
2022-11-09T03:25:47.017Z,2.45
2022-11-09T03:26:47.062Z,2.53
2022-11-09T03:27:47.128Z,2.55
2022-11-09T03:28:47.147Z,2.50
2022-11-09T03:29:47.200Z,2.61
2022-11-09T03:30:47.239Z,2.61
2022-11-09T03:31:47.297Z,2.69
2022-11-09T03:32:50.607Z,2.71
2022-11-09T03:33:47.378Z,2.75
2022-11-09T03:34:47.430Z,2.81
2022-11-09T03:35:47.473Z,2.87
2022-11-09T03:36:47.510Z,2.93
2022-11-09T03:37:47.632Z,2.94
2022-11-09T03:38:47.588Z,3.00
2022-11-09T03:39:47.636Z,3.04
2022-11-09T03:40:47.719Z,3.09
2022-11-09T03:41:47.712Z,3.07
2022-11-09T03:42:47.807Z,3.11
2022-11-09T03:43:47.783Z,3.08
2022-11-09T03:44:47.830Z,3.09
2022-11-09T03:45:47.892Z,3.15
2022-11-09T03:46:47.909Z,3.08
2022-11-09T03:47:47.962Z,3.17
2022-11-09T03:48:48.004Z,3.25
2022-11-09T03:49:48.033Z,3.23
2022-11-09T03:50:48.082Z,3.26
2022-11-09T03:51:48.112Z,3.26
2022-11-09T03:52:48.165Z,3.30
2022-11-09T03:53:48.187Z,3.36
2022-11-09T03:54:48.232Z,3.33
2022-11-09T03:55:48.334Z,3.35
2022-11-09T03:56:48.314Z,3.36
2022-11-09T03:57:48.352Z,3.41
2022-11-09T03:58:48.374Z,3.45
2022-11-09T03:59:48.404Z,3.52
2022-11-09T04:00:48.445Z,3.46
2022-11-09T04:01:48.523Z,3.51
2022-11-09T04:02:48.538Z,3.55
2022-11-09T04:03:48.539Z,3.55
2022-11-09T04:04:48.574Z,3.56
2022-11-09T04:05:48.605Z,3.64
2022-11-09T04:06:48.683Z,3.67
2022-11-09T04:07:48.679Z,3.67
2022-11-09T04:08:51.503Z,3.76
2022-11-09T04:09:48.737Z,3.78
2022-11-09T04:10:48.776Z,3.76
2022-11-09T04:11:48.807Z,3.81
2022-11-09T04:12:48.856Z,3.85
2022-11-09T04:13:48.875Z,3.87
2022-11-09T04:14:48.907Z,3.90
2022-11-09T04:15:48.937Z,3.90
2022-11-09T04:16:48.976Z,3.94
2022-11-09T04:17:49.018Z,3.90
2022-11-09T04:18:49.039Z,3.98
2022-11-09T04:19:49.058Z,3.99
2022-11-09T04:20:49.108Z,3.98
2022-11-09T04:21:49.128Z,3.98
2022-11-09T04:22:49.180Z,3.99
2022-11-09T04:23:49.200Z,4.03
2022-11-09T04:24:49.237Z,4.03
2022-11-09T04:25:49.260Z,4.05
2022-11-09T04:26:49.303Z,4.03
2022-11-09T04:27:49.362Z,4.12
2022-11-09T04:28:49.393Z,4.10
2022-11-09T04:29:49.410Z,4.13
2022-11-09T04:30:49.443Z,4.12
2022-11-09T04:31:49.485Z,4.13
2022-11-09T04:32:49.526Z,4.18
2022-11-09T04:33:49.533Z,4.17
2022-11-09T04:34:49.574Z,4.21
2022-11-09T04:35:49.593Z,4.21
2022-11-09T04:36:49.624Z,4.26
2022-11-09T04:37:49.675Z,4.30
2022-11-09T04:38:49.689Z,4.26
2022-11-09T04:39:49.703Z,4.38
2022-11-09T04:40:49.744Z,4.34
2022-11-09T04:41:49.773Z,4.43
2022-11-09T04:42:49.842Z,4.41
2022-11-09T04:43:49.842Z,4.43
2022-11-09T04:44:49.883Z,4.48
2022-11-09T04:45:49.913Z,4.51
2022-11-09T04:46:49.933Z,4.49
2022-11-09T04:47:49.965Z,4.56
2022-11-09T04:48:49.985Z,4.56
2022-11-09T04:49:50.015Z,4.56
2022-11-09T04:50:50.047Z,4.60
2022-11-09T04:51:50.066Z,4.63
2022-11-09T04:52:50.117Z,4.63
2022-11-09T04:53:50.127Z,4.61
2022-11-09T04:54:50.156Z,4.66
2022-11-09T04:55:50.185Z,4.67
2022-11-09T04:56:50.222Z,4.74
2022-11-09T04:57:50.295Z,4.74
2022-11-09T04:58:50.277Z,4.72
2022-11-09T04:59:50.287Z,4.67
2022-11-09T05:00:50.319Z,4.64
2022-11-09T05:01:50.337Z,4.61
2022-11-09T05:02:50.379Z,4.63
2022-11-09T05:03:50.432Z,4.66
2022-11-09T05:04:50.431Z,4.63
2022-11-09T05:05:50.439Z,4.60
2022-11-09T05:06:50.500Z,4.63
2022-11-09T05:07:50.492Z,4.60
2022-11-09T05:08:50.509Z,4.71
2022-11-09T05:09:50.517Z,4.72
2022-11-09T05:10:50.541Z,4.72
2022-11-09T05:11:50.560Z,4.67
2022-11-09T05:12:50.606Z,4.77
2022-11-09T05:13:50.607Z,4.71
2022-11-09T05:14:50.633Z,4.75
2022-11-09T05:15:50.661Z,4.71
2022-11-09T05:16:50.678Z,4.71
2022-11-09T05:17:50.711Z,4.71
2022-11-09T05:18:50.730Z,4.67
2022-11-09T05:19:55.029Z,4.66
2022-11-09T05:20:51.761Z,4.63
2022-11-09T05:21:50.772Z,4.64
2022-11-09T05:22:50.810Z,4.60
2022-11-09T05:23:50.812Z,4.60
2022-11-09T05:24:50.832Z,4.59
2022-11-09T05:25:50.844Z,4.60
2022-11-09T05:26:50.863Z,4.60
2022-11-09T05:27:50.890Z,4.64
2022-11-09T05:28:50.894Z,4.63
2022-11-09T05:29:50.904Z,4.60
2022-11-09T05:30:50.985Z,4.61
2022-11-09T05:31:52.462Z,4.61
2022-11-09T05:32:50.974Z,4.61
2022-11-09T05:33:50.955Z,4.60
2022-11-09T05:34:50.975Z,4.63
2022-11-09T05:35:50.977Z,4.63
2022-11-09T05:36:50.994Z,4.64
2022-11-09T05:37:51.028Z,4.66
2022-11-09T05:38:51.033Z,4.61
2022-11-09T05:39:51.036Z,4.64
2022-11-09T05:40:51.078Z,4.64
2022-11-09T05:41:51.094Z,4.64
2022-11-09T05:42:51.135Z,4.56
2022-11-09T05:43:51.128Z,4.60
2022-11-09T05:44:51.158Z,4.51
2022-11-09T05:45:51.164Z,4.49
2022-11-09T05:46:51.188Z,4.48
2022-11-09T05:47:51.228Z,4.48
2022-11-09T05:48:51.237Z,4.48
2022-11-09T05:49:51.251Z,4.46
2022-11-09T05:50:51.284Z,4.42
2022-11-09T05:51:51.297Z,4.49
2022-11-09T05:52:51.346Z,4.51
2022-11-09T05:53:51.347Z,4.56
2022-11-09T05:54:51.376Z,4.54
2022-11-09T05:55:51.389Z,4.56
2022-11-09T05:56:51.409Z,4.53
2022-11-09T05:57:51.450Z,4.49
2022-11-09T05:58:51.468Z,4.53
2022-11-09T05:59:51.478Z,4.56
2022-11-09T06:00:51.502Z,4.54
2022-11-09T06:01:51.559Z,4.57
2022-11-09T06:02:51.559Z,4.54
2022-11-09T06:03:51.561Z,4.59
2022-11-09T06:04:51.591Z,4.54
2022-11-09T06:05:51.611Z,4.61
2022-11-09T06:06:51.685Z,4.60
2022-11-09T06:07:51.658Z,4.61
2022-11-09T06:08:51.675Z,4.59
2022-11-09T06:09:51.677Z,4.64
2022-11-09T06:10:51.694Z,4.64
2022-11-09T06:11:51.720Z,4.64
2022-11-09T06:12:51.746Z,4.63
2022-11-09T06:13:51.742Z,4.63
2022-11-09T06:14:51.763Z,4.69
2022-11-09T06:15:51.773Z,4.66
2022-11-09T06:16:51.794Z,4.64
2022-11-09T06:17:51.826Z,4.72
2022-11-09T06:18:51.843Z,4.75
2022-11-09T06:19:51.849Z,4.75
2022-11-09T06:20:51.872Z,4.79
2022-11-09T06:21:51.886Z,4.89
2022-11-09T06:22:51.925Z,4.85
2022-11-09T06:23:51.917Z,4.89
2022-11-09T06:24:51.936Z,4.88
2022-11-09T06:25:51.947Z,4.91
2022-11-09T06:26:51.969Z,4.96
2022-11-09T06:27:51.977Z,4.98
2022-11-09T06:28:51.990Z,4.97
2022-11-09T06:29:51.985Z,4.98
2022-11-09T06:30:52.006Z,4.96
2022-11-09T06:31:52.009Z,5.04
2022-11-09T06:32:52.044Z,5.03
2022-11-09T06:33:52.038Z,5.04
2022-11-09T06:34:52.058Z,5.09
2022-11-09T06:35:56.203Z,5.07
2022-11-09T06:36:52.096Z,5.06
2022-11-09T06:37:52.122Z,5.12
2022-11-09T06:38:52.142Z,5.14
2022-11-09T06:39:52.140Z,5.15
2022-11-09T06:40:52.177Z,5.19
2022-11-09T06:41:52.182Z,5.22
2022-11-09T06:42:52.269Z,5.21
2022-11-09T06:43:52.220Z,5.24
2022-11-09T06:44:52.228Z,5.29
2022-11-09T06:45:52.241Z,5.30
2022-11-09T06:46:52.263Z,5.25
2022-11-09T06:47:52.292Z,5.30
2022-11-09T06:48:54.694Z,5.39
2022-11-09T06:49:52.312Z,5.37
2022-11-09T06:50:52.331Z,5.37
2022-11-09T06:51:52.343Z,5.39
2022-11-09T06:52:52.379Z,5.47
2022-11-09T06:53:52.376Z,5.51
2022-11-09T06:54:52.391Z,5.48
2022-11-09T06:55:52.396Z,5.54
2022-11-09T06:56:52.407Z,5.62
2022-11-09T06:57:52.424Z,5.59
2022-11-09T06:58:52.413Z,5.62
2022-11-09T06:59:52.413Z,5.69
2022-11-09T07:00:52.515Z,5.75
2022-11-09T07:01:53.349Z,5.80
2022-11-09T07:02:52.442Z,5.80
2022-11-09T07:03:52.424Z,5.84
2022-11-09T07:04:52.437Z,5.87
2022-11-09T07:05:52.435Z,5.87
2022-11-09T07:06:52.501Z,5.90
2022-11-09T07:07:52.478Z,5.87
2022-11-09T07:08:52.488Z,5.90
2022-11-09T07:09:52.480Z,5.90
2022-11-09T07:10:52.490Z,5.90
2022-11-09T07:11:52.498Z,5.93
2022-11-09T07:12:52.529Z,6.00
2022-11-09T07:13:57.227Z,5.98
2022-11-09T07:14:53.519Z,6.03
2022-11-09T07:15:52.518Z,6.05
2022-11-09T07:16:52.520Z,6.13
2022-11-09T07:17:52.554Z,6.09
2022-11-09T07:18:52.553Z,6.12
2022-11-09T07:19:52.540Z,6.13
2022-11-09T07:20:52.551Z,6.13
2022-11-09T07:21:52.549Z,6.16
2022-11-09T07:22:52.560Z,6.13
2022-11-09T07:23:52.548Z,6.19
2022-11-09T07:24:52.560Z,6.11
2022-11-09T07:25:52.559Z,6.13
2022-11-09T07:26:52.571Z,6.16
2022-11-09T07:27:52.592Z,6.15
2022-11-09T07:28:52.602Z,6.21
2022-11-09T07:29:59.603Z,6.25
2022-11-09T07:30:52.603Z,6.32
2022-11-09T07:31:52.603Z,6.35
2022-11-09T07:33:09.257Z,6.40
2022-11-09T07:33:53.634Z,6.47
2022-11-09T07:34:52.634Z,6.43
2022-11-09T07:35:52.693Z,6.46
2022-11-09T07:36:52.654Z,6.49
2022-11-09T07:37:52.655Z,6.56
2022-11-09T07:38:52.684Z,6.52
2022-11-09T07:39:52.688Z,6.55
2022-11-09T07:40:52.685Z,6.56
2022-11-09T07:41:52.685Z,6.56
2022-11-09T07:42:52.697Z,6.57
2022-11-09T07:43:52.714Z,6.56
2022-11-09T07:44:52.706Z,6.61
2022-11-09T07:45:52.716Z,6.60
2022-11-09T07:46:52.726Z,6.64
2022-11-09T07:47:52.736Z,6.70
2022-11-09T07:48:52.771Z,6.67
2022-11-09T07:49:52.755Z,6.64
2022-11-09T07:50:52.765Z,6.68
2022-11-09T07:51:52.768Z,6.68
2022-11-09T07:52:52.777Z,6.79
2022-11-09T07:53:52.798Z,6.78
2022-11-09T07:54:52.778Z,6.82
2022-11-09T07:55:52.787Z,6.83
2022-11-09T07:56:52.787Z,6.79
2022-11-09T07:57:52.788Z,6.83
2022-11-09T07:58:52.791Z,6.86
2022-11-09T07:59:52.809Z,6.88
2022-11-09T08:00:52.798Z,6.89
2022-11-09T08:01:52.819Z,6.86
2022-11-09T08:02:52.800Z,6.83
2022-11-09T08:03:52.807Z,6.83
2022-11-09T08:04:52.818Z,6.85
2022-11-09T08:05:52.821Z,6.86
2022-11-09T08:06:52.887Z,6.91
2022-11-09T08:07:52.819Z,6.88
2022-11-09T08:08:52.818Z,6.86
2022-11-09T08:09:52.847Z,6.89
2022-11-09T08:10:52.819Z,6.93
2022-11-09T08:11:52.834Z,6.91
2022-11-09T08:12:52.829Z,6.86
2022-11-09T08:13:52.839Z,6.96
2022-11-09T08:14:52.827Z,6.96
2022-11-09T08:15:52.839Z,7.01
2022-11-09T08:16:52.821Z,6.99
2022-11-09T08:17:52.951Z,6.99
2022-11-09T08:18:52.799Z,6.99
2022-11-09T08:19:52.800Z,7.10
2022-11-09T08:20:52.800Z,7.03
2022-11-09T08:21:52.781Z,7.01
2022-11-09T08:22:52.771Z,7.04
2022-11-09T08:23:52.771Z,7.10
2022-11-09T08:24:52.753Z,7.08
2022-11-09T08:25:52.857Z,7.08
2022-11-09T08:26:52.734Z,7.07
2022-11-09T08:27:52.731Z,7.07
2022-11-09T08:28:52.713Z,7.11
2022-11-09T08:29:52.711Z,7.15
2022-11-09T08:30:52.702Z,7.15
2022-11-09T08:31:52.683Z,7.10
2022-11-09T08:32:52.667Z,7.15
2022-11-09T08:33:52.662Z,7.18
2022-11-09T08:34:52.643Z,7.18
2022-11-09T08:35:53.473Z,7.13
2022-11-09T08:36:52.623Z,7.11
2022-11-09T08:37:52.614Z,7.19
2022-11-09T08:38:52.604Z,7.19
2022-11-09T08:39:52.595Z,7.22
2022-11-09T08:40:52.606Z,7.24
2022-11-09T08:41:52.594Z,7.21
2022-11-09T08:42:52.689Z,7.26
2022-11-09T08:43:52.575Z,7.34
2022-11-09T08:44:52.556Z,7.33
2022-11-09T08:45:52.556Z,7.34
2022-11-09T08:46:52.556Z,7.37
2022-11-09T08:47:52.547Z,7.42
2022-11-09T08:48:52.538Z,7.34
2022-11-09T08:49:52.527Z,7.37
2022-11-09T08:50:52.507Z,7.39
2022-11-09T08:51:52.525Z,7.37
2022-11-09T08:52:52.489Z,7.43
2022-11-09T08:53:52.489Z,7.47
2022-11-09T08:54:52.478Z,7.34
2022-11-09T08:55:52.475Z,7.42
2022-11-09T08:56:52.469Z,7.33
2022-11-09T08:57:52.459Z,7.40
2022-11-09T08:58:52.440Z,7.39
2022-11-09T08:59:52.439Z,7.37
2022-11-09T09:00:52.420Z,7.39
2022-11-09T09:01:52.477Z,7.37
2022-11-09T09:02:52.409Z,7.37
2022-11-09T09:03:52.424Z,7.36
2022-11-09T09:04:52.391Z,7.28
2022-11-09T09:05:52.391Z,7.31
2022-11-09T09:06:52.465Z,7.31
2022-11-09T09:07:52.381Z,7.25
2022-11-09T09:08:52.375Z,7.24
2022-11-09T09:09:52.372Z,7.24
2022-11-09T09:10:52.370Z,7.25
2022-11-09T09:11:52.384Z,7.18
2022-11-09T09:12:52.353Z,7.24
2022-11-09T09:13:52.344Z,7.22
2022-11-09T09:14:52.333Z,7.26
2022-11-09T09:15:52.331Z,7.24
2022-11-09T09:16:52.354Z,7.24
2022-11-09T09:17:52.337Z,7.28
2022-11-09T09:18:52.304Z,7.26
2022-11-09T09:19:52.302Z,7.34
2022-11-09T09:20:52.284Z,7.37
2022-11-09T09:21:52.282Z,7.40
2022-11-09T09:22:52.279Z,7.37
2022-11-09T09:23:52.268Z,7.46
2022-11-09T09:24:52.261Z,7.46
2022-11-09T09:25:55.179Z,7.49
2022-11-09T09:26:53.877Z,7.57
2022-11-09T09:27:52.242Z,7.57
2022-11-09T09:28:52.219Z,7.57
2022-11-09T09:29:52.207Z,7.60
2022-11-09T09:30:52.194Z,7.62
2022-11-09T09:31:52.187Z,7.62
2022-11-09T09:32:52.188Z,7.64
2022-11-09T09:33:52.169Z,7.62
2022-11-09T09:34:52.152Z,7.66
2022-11-09T09:35:52.151Z,7.66
2022-11-09T09:36:52.132Z,7.73
2022-11-09T09:37:52.123Z,7.74
2022-11-09T09:38:52.122Z,7.76
2022-11-09T09:39:52.111Z,7.83
2022-11-09T09:40:52.102Z,7.81
2022-11-09T09:41:52.072Z,7.86
2022-11-09T09:42:52.053Z,7.84
2022-11-09T09:43:52.061Z,7.87
2022-11-09T09:44:52.033Z,7.91
2022-11-09T09:45:52.022Z,7.84
2022-11-09T09:46:52.004Z,7.91
2022-11-09T09:47:51.985Z,7.92
2022-11-09T09:48:51.983Z,7.96
2022-11-09T09:49:52.005Z,7.99
2022-11-09T09:50:51.954Z,8.04
2022-11-09T09:51:51.955Z,8.05
2022-11-09T09:53:17.652Z,8.06
2022-11-09T09:53:52.967Z,8.05
2022-11-09T09:54:52.173Z,7.99
2022-11-09T09:55:51.944Z,7.94
2022-11-09T09:56:51.934Z,7.98
2022-11-09T09:57:51.928Z,7.96
2022-11-09T09:58:51.927Z,7.95
2022-11-09T09:59:51.898Z,7.96
2022-11-09T10:00:51.877Z,8.05
2022-11-09T10:01:51.866Z,8.09
2022-11-09T10:02:51.845Z,8.12
2022-11-09T10:03:51.867Z,8.14
2022-11-09T10:04:51.863Z,8.20
2022-11-09T10:05:51.823Z,8.31
2022-11-09T10:06:51.836Z,8.32
2022-11-09T10:07:51.789Z,8.29
2022-11-09T10:08:51.781Z,8.29
2022-11-09T10:09:51.776Z,8.29
2022-11-09T10:10:51.747Z,8.32
2022-11-09T10:11:51.741Z,8.41
2022-11-09T10:12:51.719Z,8.52
2022-11-09T10:13:51.709Z,8.44
2022-11-09T10:14:51.707Z,8.44
2022-11-09T10:15:51.689Z,8.42
2022-11-09T10:16:51.667Z,8.47
2022-11-09T10:17:51.660Z,8.53
2022-11-09T10:18:51.640Z,8.59
2022-11-09T10:19:51.666Z,8.56
2022-11-09T10:20:52.960Z,8.57
2022-11-09T10:21:51.611Z,8.60
2022-11-09T10:22:51.586Z,8.63
2022-11-09T10:23:51.570Z,8.65
2022-11-09T10:25:18.589Z,8.68
2022-11-09T10:26:03.655Z,8.62
2022-11-09T10:26:52.519Z,8.70
2022-11-09T10:27:51.493Z,8.70
2022-11-09T10:29:15.688Z,8.75
2022-11-09T10:29:52.474Z,8.77
2022-11-09T10:30:51.433Z,8.88
2022-11-09T10:31:51.415Z,8.85
2022-11-09T10:32:51.393Z,8.90
2022-11-09T10:33:51.382Z,8.93
2022-11-09T10:34:51.354Z,8.95
2022-11-09T10:35:51.345Z,8.92
2022-11-09T10:36:51.304Z,8.90
2022-11-09T10:37:51.296Z,8.92
2022-11-09T10:38:51.273Z,8.96
2022-11-09T10:39:51.256Z,8.98
2022-11-09T10:40:51.245Z,8.90
2022-11-09T10:41:51.214Z,8.92
2022-11-09T10:42:51.183Z,8.89
2022-11-09T10:43:51.167Z,8.92
2022-11-09T10:44:51.137Z,8.92
2022-11-09T10:45:51.128Z,8.95
2022-11-09T10:46:51.087Z,8.95
2022-11-09T10:47:51.074Z,8.98
2022-11-09T10:48:51.039Z,9.04
2022-11-09T10:49:51.018Z,9.06
2022-11-09T10:50:51.002Z,9.14
2022-11-09T10:51:50.967Z,9.23
2022-11-09T10:52:50.939Z,9.24
2022-11-09T10:53:50.920Z,9.27
2022-11-09T10:54:50.890Z,9.32
2022-11-09T10:55:50.862Z,9.34
2022-11-09T10:57:05.537Z,9.36
2022-11-09T10:57:51.821Z,9.30
2022-11-09T10:58:50.781Z,9.26
2022-11-09T10:59:50.762Z,9.23
2022-11-09T11:00:50.732Z,9.19
2022-11-09T11:01:50.767Z,9.15
2022-11-09T11:02:50.679Z,9.14
2022-11-09T11:03:50.653Z,9.16
2022-11-09T11:04:50.630Z,9.14
2022-11-09T11:05:50.611Z,9.15
2022-11-09T11:06:50.621Z,9.15
2022-11-09T11:07:50.543Z,9.19
2022-11-09T11:08:50.512Z,9.23
2022-11-09T11:09:50.485Z,9.23
2022-11-09T11:10:58.512Z,9.27
2022-11-09T11:11:51.453Z,9.22
2022-11-09T11:12:50.405Z,9.24
2022-11-09T11:13:50.375Z,9.19
2022-11-09T11:14:50.336Z,9.19
2022-11-09T11:15:50.313Z,9.23
2022-11-09T11:16:50.298Z,9.23
2022-11-09T11:17:50.246Z,9.22
2022-11-09T11:18:50.220Z,9.18
2022-11-09T11:19:50.199Z,9.18
2022-11-09T11:20:50.168Z,9.16
2022-11-09T11:21:50.149Z,9.24
2022-11-09T11:22:50.138Z,9.11
2022-11-09T11:23:50.217Z,9.11
2022-11-09T11:24:50.077Z,9.04
2022-11-09T11:25:50.039Z,9.03
2022-11-09T11:26:50.030Z,9.03
2022-11-09T11:27:50.003Z,9.03
2022-11-09T11:28:49.960Z,9.06
2022-11-09T11:29:49.930Z,9.03
2022-11-09T11:30:49.908Z,9.04
2022-11-09T11:31:49.880Z,9.08
2022-11-09T11:32:50.860Z,9.11
2022-11-09T11:33:49.831Z,9.19
2022-11-09T11:34:59.799Z,9.16
2022-11-09T11:35:50.788Z,9.18
2022-11-09T11:36:49.761Z,9.22
2022-11-09T11:37:49.751Z,9.24
2022-11-09T11:38:49.703Z,9.16
2022-11-09T11:39:49.684Z,9.22
2022-11-09T11:40:49.657Z,9.14
2022-11-09T11:41:49.634Z,9.22
2022-11-09T11:42:49.624Z,9.24
2022-11-09T11:43:49.584Z,9.27
2022-11-09T11:44:56.879Z,9.23
2022-11-09T11:45:50.525Z,9.22
2022-11-09T11:46:49.495Z,9.19
2022-11-09T11:47:49.467Z,9.16
2022-11-09T11:48:49.446Z,9.11
2022-11-09T11:49:49.408Z,9.11
2022-11-09T11:50:49.376Z,9.15
2022-11-09T11:51:49.347Z,9.12
2022-11-09T11:52:49.318Z,9.16
2022-11-09T11:53:49.299Z,9.14
2022-11-09T11:54:49.260Z,9.12
2022-11-09T11:55:49.242Z,9.18
2022-11-09T11:56:49.200Z,9.15
2022-11-09T11:57:49.188Z,9.22
2022-11-09T11:58:49.169Z,9.12
2022-11-09T11:59:49.129Z,9.22
2022-11-09T12:00:49.106Z,9.16
2022-11-09T12:01:49.079Z,9.18
2022-11-09T12:02:49.084Z,9.23
2022-11-09T12:03:50.671Z,9.19
2022-11-09T12:04:49.011Z,9.23
2022-11-09T12:05:49.032Z,9.24
2022-11-09T12:06:48.988Z,9.30
2022-11-09T12:07:52.239Z,9.29
2022-11-09T12:08:49.910Z,9.32
2022-11-09T12:09:48.893Z,9.33
2022-11-09T12:10:48.861Z,9.40
2022-11-09T12:11:48.824Z,9.44
2022-11-09T12:12:48.803Z,9.48
2022-11-09T12:13:49.938Z,9.48
2022-11-09T12:14:48.762Z,9.45
2022-11-09T12:15:48.721Z,9.47
2022-11-09T12:16:48.704Z,9.54
2022-11-09T12:17:48.673Z,9.47
2022-11-09T12:18:48.655Z,9.52
2022-11-09T12:19:48.645Z,9.54
2022-11-09T12:20:48.605Z,9.52
2022-11-09T12:21:48.577Z,9.54
2022-11-09T12:22:48.557Z,9.60
2022-11-09T12:23:48.528Z,9.57
2022-11-09T12:24:48.497Z,9.62
2022-11-09T12:25:48.487Z,9.62
2022-11-09T12:26:59.799Z,9.66
2022-11-09T12:27:49.419Z,9.72
2022-11-09T12:28:48.398Z,9.77
2022-11-09T12:29:48.358Z,9.73
2022-11-09T12:30:48.347Z,9.81
2022-11-09T12:31:48.300Z,9.81
2022-11-09T12:32:48.281Z,9.84
2022-11-09T12:33:48.241Z,9.85
2022-11-09T12:34:48.220Z,9.87
2022-11-09T12:35:48.225Z,9.87
2022-11-09T12:36:48.150Z,9.91
2022-11-09T12:37:48.130Z,9.96
2022-11-09T12:38:48.101Z,10.02
2022-11-09T12:39:48.072Z,10.03
2022-11-09T12:40:48.062Z,10.03
2022-11-09T12:41:48.017Z,10.06
2022-11-09T12:42:47.982Z,10.03
2022-11-09T12:43:47.943Z,9.98
2022-11-09T12:44:47.940Z,9.99
2022-11-09T12:45:47.893Z,9.99
2022-11-09T12:46:47.853Z,9.96
2022-11-09T12:47:47.825Z,9.96
2022-11-09T12:48:47.795Z,9.98
2022-11-09T12:49:47.755Z,9.98
2022-11-09T12:50:47.752Z,9.94
2022-11-09T12:51:47.685Z,9.98
2022-11-09T12:52:47.655Z,10.03
2022-11-09T12:53:47.612Z,9.98
2022-11-09T12:54:47.584Z,10.01
2022-11-09T12:55:47.556Z,10.08
2022-11-09T12:56:47.508Z,10.02
2022-11-09T12:57:47.475Z,10.06
2022-11-09T12:58:47.439Z,10.02
2022-11-09T12:59:47.401Z,10.03
2022-11-09T13:00:47.378Z,10.08
2022-11-09T13:01:47.336Z,10.12
2022-11-09T13:02:47.278Z,10.23
2022-11-09T13:03:47.229Z,10.21
2022-11-09T13:04:47.200Z,10.17
2022-11-09T13:05:47.158Z,10.21
2022-11-09T13:06:47.192Z,10.26
2022-11-09T13:07:47.084Z,10.27
2022-11-09T13:08:47.048Z,10.41
2022-11-09T13:09:46.991Z,10.35
2022-11-09T13:10:46.962Z,10.38
2022-11-09T13:11:46.949Z,10.39
2022-11-09T13:12:46.891Z,10.31
2022-11-09T13:13:46.838Z,10.36
2022-11-09T13:14:46.802Z,10.41
2022-11-09T13:15:46.752Z,10.41
2022-11-09T13:16:46.733Z,10.43
2022-11-09T13:17:46.673Z,10.46